Renfrew, Canada
Current Conditions -  °F | °C
As of 12:00 AM on Tuesday 23 Dec 2014 (Local Time) from CYWA Reporting Station
Overcast Overcast  
Wind Chill: 23°   Ceiling: 700
Heat Index: 23°   Visibility: 7mi
Dew Point: 21°   Wind: 3mph
Humidity: 93%   Direction: 170°S
Pressure: 30.18"   Gusts: NA
Location:  45.47°N, 76.68°W
Report Text: CYWA 230500Z AUTO 17003KT 150V210 7SM OVC007 M05/M06 A3018 RMKSLP230
Loading
Personal Weather Stations






























Interactive Weather Map New forecast layout! Learn more

10-Day Weather Forecast

Advertisements
Track Severe Weather on mobile